createdAt,value
2023-01-10T00:00:16.711Z,85.44
2023-01-10T00:02:47.138Z,85.09
2023-01-10T00:05:17.709Z,84.28
2023-01-10T00:07:48.602Z,83.29
2023-01-10T00:10:19.590Z,83.00
2023-01-10T00:13:02.318Z,83.09
2023-01-10T00:15:35.632Z,82.52
2023-01-10T00:18:06.359Z,82.50
2023-01-10T00:20:36.884Z,82.56
2023-01-10T00:23:08.932Z,82.20
2023-01-10T00:25:39.345Z,81.93
2023-01-10T00:28:17.463Z,81.87
2023-01-10T00:30:55.198Z,81.78
2023-01-10T00:33:26.498Z,81.74
2023-01-10T00:35:56.801Z,81.62
2023-01-10T00:38:27.435Z,81.08
2023-01-10T00:40:57.838Z,81.41
2023-01-10T00:43:40.569Z,82.01
2023-01-10T00:46:14.221Z,81.72
2023-01-10T00:48:44.561Z,82.12
2023-01-10T00:51:14.904Z,81.99
2023-01-10T00:53:45.147Z,81.74
2023-01-10T00:56:15.371Z,81.63
2023-01-10T00:58:45.861Z,81.68
2023-01-10T01:01:18.971Z,81.36
2023-01-10T01:03:49.332Z,81.38
2023-01-10T01:06:19.978Z,81.55
2023-01-10T01:08:50.312Z,81.66
2023-01-10T01:11:20.822Z,81.69
2023-01-10T01:13:51.913Z,81.72
2023-01-10T01:16:25.219Z,81.73
2023-01-10T01:18:55.591Z,81.57
2023-01-10T01:21:28.307Z,81.74
2023-01-10T01:23:59.623Z,81.58
2023-01-10T01:26:29.998Z,81.59
2023-01-10T01:29:00.329Z,82.61
2023-01-10T01:31:33.280Z,82.53
2023-01-10T01:34:03.627Z,82.76
2023-01-10T01:36:33.975Z,82.31
2023-01-10T01:39:06.270Z,82.37
2023-01-10T01:41:48.935Z,81.77
2023-01-10T01:44:21.939Z,81.60
2023-01-10T01:47:04.626Z,81.26
2023-01-10T01:49:38.276Z,81.93
2023-01-10T01:52:15.463Z,82.66
2023-01-10T01:54:46.026Z,83.41
2023-01-10T01:57:22.357Z,83.26
2023-01-10T01:59:56.716Z,83.74
2023-01-10T02:02:34.512Z,84.14
2023-01-10T02:05:08.865Z,84.36
2023-01-10T02:07:43.133Z,83.80
2023-01-10T02:10:20.005Z,83.70
2023-01-10T02:12:54.026Z,83.62
2023-01-10T02:15:24.481Z,82.98
2023-01-10T02:17:57.657Z,82.86
2023-01-10T02:20:28.585Z,83.52
2023-01-10T02:24:04.103Z,83.89
2023-01-10T02:27:02.082Z,83.52
2023-01-10T02:30:19.928Z,83.94
2023-01-10T02:33:05.149Z,84.11
2023-01-10T02:36:00.578Z,84.67
2023-01-10T02:38:46.503Z,84.54
2023-01-10T02:41:27.877Z,84.67
2023-01-10T02:44:06.243Z,84.46
2023-01-10T02:46:40.849Z,84.46
2023-01-10T02:49:13.806Z,84.59
2023-01-10T02:51:44.095Z,85.09
2023-01-10T02:54:18.779Z,85.69
2023-01-10T02:57:11.704Z,85.71
2023-01-10T03:00:21.947Z,86.04
2023-01-10T03:03:04.823Z,86.34
2023-01-10T03:05:55.887Z,86.45
2023-01-10T03:08:36.966Z,85.98
2023-01-10T03:11:12.990Z,86.21
2023-01-10T03:13:51.503Z,86.26
2023-01-10T03:16:26.613Z,86.34
2023-01-10T03:19:02.346Z,86.24
2023-01-10T03:21:37.571Z,86.37
2023-01-10T03:24:15.537Z,86.28
2023-01-10T03:26:57.205Z,85.81
2023-01-10T03:29:42.946Z,85.22
2023-01-10T03:32:17.449Z,85.29
2023-01-10T03:34:48.339Z,85.21
2023-01-10T03:37:26.389Z,84.97
2023-01-10T03:40:06.478Z,84.45
2023-01-10T03:43:01.259Z,84.16
2023-01-10T03:45:38.852Z,84.04
2023-01-10T03:48:12.481Z,83.73
2023-01-10T03:50:45.555Z,83.28
2023-01-10T03:53:19.576Z,82.82
2023-01-10T03:55:49.925Z,82.82
2023-01-10T03:58:21.979Z,82.64
2023-01-10T04:00:52.554Z,82.17
2023-01-10T04:03:23.108Z,82.00
2023-01-10T04:05:53.527Z,82.77
2023-01-10T04:08:26.516Z,82.26
2023-01-10T04:10:56.897Z,82.12
2023-01-10T04:13:27.291Z,82.35
2023-01-10T04:15:57.631Z,82.44
2023-01-10T04:18:27.997Z,82.11
2023-01-10T04:20:58.402Z,82.51
2023-01-10T04:23:31.396Z,82.40
2023-01-10T04:26:01.680Z,82.84
2023-01-10T04:28:32.026Z,82.69
2023-01-10T04:31:02.440Z,82.99
2023-01-10T04:33:33.005Z,83.35
2023-01-10T04:36:03.745Z,83.90
2023-01-10T04:38:36.737Z,83.38
2023-01-10T04:41:07.301Z,83.21
2023-01-10T04:43:37.657Z,82.96
2023-01-10T04:46:08.413Z,82.77
2023-01-10T04:48:39.415Z,82.44
2023-01-10T04:51:09.938Z,83.06
2023-01-10T04:53:43.084Z,83.15
2023-01-10T04:56:19.464Z,83.62
2023-01-10T04:58:53.080Z,83.74
2023-01-10T05:01:26.790Z,84.11
2023-01-10T05:03:59.321Z,83.64
2023-01-10T05:06:29.959Z,83.84
2023-01-10T05:09:03.088Z,83.55
2023-01-10T05:11:33.390Z,83.82
2023-01-10T05:14:03.757Z,83.78
2023-01-10T05:16:34.170Z,83.44
2023-01-10T05:19:04.677Z,83.43
2023-01-10T05:21:35.314Z,82.50
2023-01-10T05:24:09.658Z,82.47
2023-01-10T05:26:40.118Z,82.27
2023-01-10T05:29:12.096Z,82.50
2023-01-10T05:31:42.477Z,82.38
2023-01-10T05:34:15.553Z,81.99
2023-01-10T05:36:45.857Z,81.92
2023-01-10T05:39:18.762Z,81.97
2023-01-10T05:41:49.039Z,82.32
2023-01-10T05:44:19.363Z,82.59
2023-01-10T05:46:49.787Z,83.39
2023-01-10T05:49:20.133Z,83.89
2023-01-10T05:51:50.497Z,83.71
2023-01-10T05:54:23.646Z,83.55
2023-01-10T05:56:53.926Z,84.44
2023-01-10T05:59:28.352Z,85.12
2023-01-10T06:01:59.184Z,86.88
2023-01-10T06:04:29.523Z,87.84
2023-01-10T06:06:59.809Z,88.99
2023-01-10T06:09:32.803Z,89.82
2023-01-10T06:12:03.137Z,90.91
2023-01-10T06:14:33.493Z,91.98
2023-01-10T06:17:03.789Z,91.42
2023-01-10T06:19:34.036Z,91.94
2023-01-10T06:22:04.424Z,91.25
2023-01-10T06:24:37.315Z,91.28
2023-01-10T06:27:07.651Z,91.57
2023-01-10T06:29:37.961Z,91.20
2023-01-10T06:32:08.476Z,91.59
2023-01-10T06:34:38.870Z,91.15
2023-01-10T06:37:09.299Z,91.08
2023-01-10T06:39:42.489Z,91.33
2023-01-10T06:42:12.778Z,91.04
2023-01-10T06:44:43.086Z,90.63
2023-01-10T06:47:13.373Z,91.25
2023-01-10T06:49:43.649Z,90.78
2023-01-10T06:52:13.981Z,91.07
2023-01-10T06:54:46.866Z,91.67
2023-01-10T06:57:17.154Z,92.45
2023-01-10T06:59:47.462Z,92.75
2023-01-10T07:02:18.260Z,93.58
2023-01-10T07:04:48.670Z,94.16
2023-01-10T07:07:19.492Z,94.05
2023-01-10T07:09:52.482Z,93.92
2023-01-10T07:12:22.783Z,93.34
2023-01-10T07:14:53.035Z,94.27
2023-01-10T07:17:23.507Z,95.54
2023-01-10T07:19:53.942Z,95.84
2023-01-10T07:22:24.441Z,97.52
2023-01-10T07:24:57.557Z,97.79
2023-01-10T07:27:27.821Z,98.20
2023-01-10T07:29:58.439Z,98.27
2023-01-10T07:32:29.635Z,97.79
2023-01-10T07:35:00.121Z,98.20
2023-01-10T07:37:30.597Z,98.04
2023-01-10T07:40:03.619Z,96.91
2023-01-10T07:42:33.906Z,96.13
2023-01-10T07:45:04.212Z,95.58
2023-01-10T07:47:34.584Z,95.30
2023-01-10T07:50:04.909Z,95.67
2023-01-10T07:52:38.413Z,94.94
2023-01-10T07:55:12.792Z,95.93
2023-01-10T07:57:43.190Z,95.56
2023-01-10T08:00:17.943Z,93.50
2023-01-10T08:02:49.635Z,93.04
2023-01-10T08:05:20.183Z,93.05
2023-01-10T08:07:50.536Z,93.33
2023-01-10T08:10:23.600Z,93.63
2023-01-10T08:12:53.913Z,93.72
2023-01-10T08:15:24.546Z,93.37
2023-01-10T08:17:55.027Z,93.14
2023-01-10T08:20:25.363Z,93.57
2023-01-10T08:22:55.692Z,93.43
2023-01-10T08:25:29.306Z,94.00
2023-01-10T08:27:59.565Z,93.42
2023-01-10T08:30:30.111Z,94.30
2023-01-10T08:33:00.524Z,94.28
2023-01-10T08:35:30.983Z,94.59
2023-01-10T08:38:02.813Z,93.90
2023-01-10T08:40:35.882Z,93.40
2023-01-10T08:43:08.934Z,93.47
2023-01-10T08:45:40.221Z,92.80
2023-01-10T08:48:11.837Z,92.39
2023-01-10T08:50:42.118Z,92.97
2023-01-10T08:53:13.842Z,93.16
2023-01-10T08:55:46.841Z,93.46
2023-01-10T08:58:17.732Z,93.48
2023-01-10T09:00:49.647Z,93.65
2023-01-10T09:03:20.129Z,93.98
2023-01-10T09:05:50.931Z,92.93
2023-01-10T09:08:21.287Z,91.99
2023-01-10T09:10:54.522Z,91.51
2023-01-10T09:13:25.356Z,90.98
2023-01-10T09:15:56.873Z,90.75
2023-01-10T09:18:28.327Z,89.96
2023-01-10T09:20:59.136Z,90.07
2023-01-10T09:23:30.014Z,90.85
2023-01-10T09:26:04.273Z,89.86
2023-01-10T09:28:34.652Z,89.54
2023-01-10T09:31:05.345Z,88.78
2023-01-10T09:33:46.163Z,88.03
2023-01-10T09:36:16.899Z,87.61
2023-01-10T09:38:47.463Z,87.24
2023-01-10T09:42:00.268Z,86.71
2023-01-10T09:44:45.149Z,85.80
2023-01-10T09:47:23.356Z,85.27
2023-01-10T09:50:15.533Z,84.89
2023-01-10T09:52:50.291Z,82.97
2023-01-10T09:55:31.430Z,82.46
2023-01-10T09:58:12.949Z,82.43
2023-01-10T10:00:47.513Z,81.69
2023-01-10T10:03:33.295Z,80.67
2023-01-10T10:06:11.540Z,80.79
2023-01-10T10:08:43.310Z,80.13
2023-01-10T10:11:31.839Z,79.32
2023-01-10T10:14:14.374Z,79.11
2023-01-10T10:17:09.603Z,78.88
2023-01-10T10:20:02.920Z,78.38
2023-01-10T10:22:47.393Z,77.15
2023-01-10T10:25:44.081Z,78.33
2023-01-10T10:28:53.685Z,78.05
2023-01-10T10:31:43.797Z,77.17
2023-01-10T10:34:24.040Z,77.42
2023-01-10T10:36:59.609Z,76.90
2023-01-10T10:39:39.351Z,76.65
2023-01-10T10:42:17.838Z,76.92
2023-01-10T10:44:54.149Z,76.48
2023-01-10T10:47:35.743Z,76.79
2023-01-10T10:50:21.701Z,75.46
2023-01-10T10:52:52.015Z,74.79
2023-01-10T10:55:33.475Z,73.64
2023-01-10T10:58:05.617Z,72.71
2023-01-10T11:00:36.447Z,72.76
2023-01-10T11:03:28.771Z,72.49
2023-01-10T11:06:00.693Z,72.55
2023-01-10T11:08:32.720Z,70.60
2023-01-10T11:11:07.824Z,71.33
2023-01-10T11:13:49.933Z,70.04
2023-01-10T11:16:33.116Z,67.64
2023-01-10T11:19:21.995Z,65.73
2023-01-10T11:21:57.228Z,66.28
2023-01-10T11:24:32.358Z,64.56
2023-01-10T11:27:07.883Z,65.09
2023-01-10T11:29:46.106Z,64.59
2023-01-10T11:32:20.188Z,63.55
2023-01-10T11:35:01.295Z,61.71
2023-01-10T11:37:36.077Z,60.56
2023-01-10T11:40:26.176Z,60.86
2023-01-10T11:42:59.418Z,62.23
2023-01-10T11:45:37.120Z,61.65
2023-01-10T11:48:21.412Z,61.86
2023-01-10T11:51:00.162Z,60.91
2023-01-10T11:53:41.572Z,61.38
2023-01-10T11:56:16.154Z,60.84
2023-01-10T11:58:46.921Z,59.83
2023-01-10T12:01:31.731Z,58.83
2023-01-10T12:04:02.672Z,57.34
2023-01-10T12:06:37.195Z,57.19
2023-01-10T12:09:07.519Z,58.27
2023-01-10T12:11:37.858Z,58.18
2023-01-10T12:14:23.350Z,56.05
2023-01-10T12:17:03.570Z,55.65
2023-01-10T12:19:33.978Z,56.23
2023-01-10T12:22:09.030Z,56.97
2023-01-10T12:24:44.273Z,59.20
2023-01-10T12:27:17.640Z,59.29
2023-01-10T12:29:54.796Z,59.51
2023-01-10T12:32:30.753Z,60.19
2023-01-10T12:35:06.801Z,60.79
2023-01-10T12:37:49.438Z,61.26
2023-01-10T12:40:29.299Z,61.01
2023-01-10T12:43:20.585Z,60.23
2023-01-10T12:45:55.053Z,59.76
2023-01-10T12:48:33.735Z,59.77
2023-01-10T12:51:09.095Z,59.39
2023-01-10T12:53:47.158Z,60.27
2023-01-10T12:56:20.366Z,60.63
2023-01-10T12:58:53.669Z,60.25
2023-01-10T13:01:32.498Z,60.75
2023-01-10T13:04:08.653Z,61.12
2023-01-10T13:06:42.610Z,60.41
2023-01-10T13:09:21.123Z,61.06
2023-01-10T13:12:00.463Z,61.16
2023-01-10T13:14:39.006Z,61.71
2023-01-10T13:17:23.814Z,61.23
2023-01-10T13:20:30.496Z,61.68
2023-01-10T13:23:02.661Z,62.03
2023-01-10T13:25:39.775Z,61.81
2023-01-10T13:28:19.763Z,61.96
2023-01-10T13:30:56.001Z,62.48
2023-01-10T13:33:28.838Z,62.64
2023-01-10T13:36:09.168Z,62.20
2023-01-10T13:38:50.611Z,62.92
2023-01-10T13:41:37.010Z,63.16
2023-01-10T13:44:12.851Z,62.60
2023-01-10T13:46:52.522Z,62.42
2023-01-10T13:49:49.193Z,62.46
2023-01-10T13:52:43.517Z,62.85
2023-01-10T13:55:34.377Z,62.62
2023-01-10T13:58:58.152Z,63.21
2023-01-10T14:01:51.729Z,62.82
2023-01-10T14:04:24.389Z,63.34
2023-01-10T14:06:57.977Z,64.21
2023-01-10T14:09:41.442Z,63.78
2023-01-10T14:12:24.913Z,64.07
2023-01-10T14:15:06.690Z,64.48
2023-01-10T14:17:39.072Z,64.62
2023-01-10T14:20:23.299Z,64.38
2023-01-10T14:23:12.162Z,64.60
2023-01-10T14:25:42.991Z,65.74
2023-01-10T14:28:24.602Z,66.10
2023-01-10T14:31:06.789Z,65.82
2023-01-10T14:33:39.781Z,66.62
2023-01-10T14:36:18.745Z,65.98
2023-01-10T14:38:50.678Z,66.29
2023-01-10T14:41:26.028Z,66.22
2023-01-10T14:44:02.334Z,66.47
2023-01-10T14:46:47.436Z,66.46
2023-01-10T14:49:28.862Z,66.62
2023-01-10T14:52:16.383Z,67.04
2023-01-10T14:54:46.841Z,66.80
2023-01-10T14:57:23.280Z,67.00
2023-01-10T14:59:54.391Z,66.96
2023-01-10T15:02:28.224Z,67.31
2023-01-10T15:05:01.491Z,67.27
2023-01-10T15:07:31.989Z,67.48
2023-01-10T15:10:06.135Z,67.57
2023-01-10T15:12:38.598Z,67.51
2023-01-10T15:15:17.977Z,67.67
2023-01-10T15:17:52.032Z,68.00
2023-01-10T15:20:24.929Z,68.57
2023-01-10T15:23:01.091Z,68.64
2023-01-10T15:25:38.168Z,68.88
2023-01-10T15:28:17.459Z,69.11
2023-01-10T15:30:48.708Z,70.12
2023-01-10T15:33:29.928Z,70.35
2023-01-10T15:36:00.787Z,70.84
2023-01-10T15:38:34.302Z,71.35
2023-01-10T15:41:08.018Z,71.89
2023-01-10T15:43:40.368Z,72.44
2023-01-10T15:46:22.010Z,72.46
2023-01-10T15:49:03.160Z,72.01
2023-01-10T15:51:37.626Z,72.19
2023-01-10T15:54:13.177Z,72.49
2023-01-10T15:56:51.187Z,72.44
2023-01-10T15:59:27.195Z,73.32
2023-01-10T16:02:00.112Z,74.16
2023-01-10T16:04:37.519Z,75.30
2023-01-10T16:07:10.898Z,75.48
2023-01-10T16:09:42.790Z,75.71
2023-01-10T16:12:41.390Z,75.64
2023-01-10T16:15:19.590Z,75.86
2023-01-10T16:17:51.117Z,76.41
2023-01-10T16:20:29.152Z,77.06
2023-01-10T16:23:01.140Z,77.15
2023-01-10T16:25:36.860Z,77.07
2023-01-10T16:28:09.548Z,76.42
2023-01-10T16:30:43.718Z,76.88
2023-01-10T16:33:17.667Z,77.16
2023-01-10T16:35:52.304Z,77.89
2023-01-10T16:38:23.360Z,78.20
2023-01-10T16:40:56.374Z,77.83
2023-01-10T16:43:26.921Z,77.63
2023-01-10T16:46:00.350Z,78.11
2023-01-10T16:48:33.615Z,78.72
2023-01-10T16:51:20.833Z,78.82
2023-01-10T16:53:52.043Z,78.75
2023-01-10T16:56:23.541Z,78.68
2023-01-10T16:58:55.856Z,78.73
2023-01-10T17:01:31.432Z,78.79
2023-01-10T17:04:02.481Z,78.98
2023-01-10T17:06:35.620Z,78.99
2023-01-10T17:09:06.362Z,79.25
2023-01-10T17:11:41.544Z,79.23
2023-01-10T17:14:15.398Z,78.91
2023-01-10T17:16:46.351Z,78.66
2023-01-10T17:19:16.739Z,78.17
2023-01-10T17:21:49.990Z,78.87
2023-01-10T17:24:20.284Z,78.85
2023-01-10T17:26:50.650Z,79.04
2023-01-10T17:29:23.168Z,78.96
2023-01-10T17:31:53.748Z,79.52
2023-01-10T17:34:24.290Z,79.39
2023-01-10T17:36:57.208Z,78.86
2023-01-10T17:39:27.721Z,79.42
2023-01-10T17:41:58.256Z,79.66
2023-01-10T17:44:28.613Z,80.04
2023-01-10T17:46:58.904Z,81.04
2023-01-10T17:49:29.548Z,80.89
2023-01-10T17:52:02.520Z,80.75
2023-01-10T17:54:35.069Z,80.59
2023-01-10T17:57:06.245Z,80.02
2023-01-10T17:59:36.723Z,79.38
2023-01-10T18:02:07.735Z,78.99
2023-01-10T18:04:38.202Z,79.13
2023-01-10T18:07:12.947Z,80.31
2023-01-10T18:09:43.431Z,80.39
2023-01-10T18:12:13.723Z,79.82
2023-01-10T18:14:44.065Z,80.43
2023-01-10T18:17:17.495Z,79.72
2023-01-10T18:19:49.056Z,80.08
2023-01-10T18:22:34.444Z,79.38
2023-01-10T18:25:04.809Z,79.56
2023-01-10T18:27:36.188Z,79.26
2023-01-10T18:30:08.516Z,78.64
2023-01-10T18:32:38.934Z,78.54
2023-01-10T18:35:10.223Z,78.40
2023-01-10T18:37:43.307Z,78.59
2023-01-10T18:40:17.170Z,78.61
2023-01-10T18:42:51.485Z,79.10
2023-01-10T18:45:22.629Z,79.07
2023-01-10T18:47:56.448Z,78.93
2023-01-10T18:50:27.827Z,78.11
2023-01-10T18:53:03.874Z,77.98
2023-01-10T18:55:34.893Z,77.65
2023-01-10T18:58:05.414Z,78.11
2023-01-10T19:00:35.873Z,78.04
2023-01-10T19:03:06.888Z,77.24
2023-01-10T19:05:37.335Z,76.61
2023-01-10T19:08:10.396Z,76.26
2023-01-10T19:11:00.314Z,75.40
2023-01-10T19:13:31.127Z,75.49
2023-01-10T19:16:15.503Z,74.95
2023-01-10T19:18:46.692Z,74.56
2023-01-10T19:21:17.830Z,74.08
2023-01-10T19:23:55.127Z,73.73
2023-01-10T19:26:26.426Z,73.65
2023-01-10T19:28:56.469Z,73.73
2023-01-10T19:31:29.608Z,73.74
2023-01-10T19:34:02.901Z,73.26
2023-01-10T19:36:34.879Z,72.96
2023-01-10T19:39:08.171Z,73.14
2023-01-10T19:41:39.302Z,73.11
2023-01-10T19:44:11.171Z,72.98
2023-01-10T19:46:44.083Z,73.27
2023-01-10T19:49:19.671Z,73.14
2023-01-10T19:51:53.836Z,73.28
2023-01-10T19:54:27.009Z,73.10
2023-01-10T19:56:57.385Z,73.34
2023-01-10T19:59:27.957Z,73.62
2023-01-10T20:01:58.392Z,73.89
2023-01-10T20:04:28.810Z,74.24
2023-01-10T20:06:59.291Z,74.30
2023-01-10T20:09:33.546Z,74.12
2023-01-10T20:12:03.829Z,73.79
2023-01-10T20:14:34.302Z,73.78
2023-01-10T20:17:04.971Z,74.11
2023-01-10T20:19:35.371Z,74.06
2023-01-10T20:22:05.723Z,73.73
2023-01-10T20:24:39.430Z,73.62
2023-01-10T20:27:10.348Z,73.38
2023-01-10T20:29:42.880Z,73.91
2023-01-10T20:32:13.942Z,73.99
2023-01-10T20:34:45.425Z,74.12
2023-01-10T20:37:15.761Z,73.57
2023-01-10T20:39:49.709Z,73.35
2023-01-10T20:42:20.022Z,73.59
2023-01-10T20:44:50.267Z,73.68
2023-01-10T20:47:21.659Z,73.82
2023-01-10T20:49:52.303Z,73.87
2023-01-10T20:52:22.704Z,73.76
2023-01-10T20:54:55.641Z,73.79
2023-01-10T20:57:26.017Z,73.35
2023-01-10T20:59:56.321Z,73.66
2023-01-10T21:02:26.715Z,73.41
2023-01-10T21:04:57.129Z,73.22
2023-01-10T21:07:27.436Z,73.05
2023-01-10T21:10:00.366Z,72.96
2023-01-10T21:12:31.748Z,73.19
2023-01-10T21:15:02.064Z,73.07
2023-01-10T21:17:32.454Z,72.86
2023-01-10T21:20:02.871Z,72.79
2023-01-10T21:22:33.189Z,72.56
2023-01-10T21:25:06.442Z,72.53
2023-01-10T21:27:37.024Z,72.26
2023-01-10T21:30:10.106Z,72.09
2023-01-10T21:32:40.422Z,72.05
2023-01-10T21:35:11.329Z,71.93
2023-01-10T21:37:41.776Z,71.95
2023-01-10T21:40:15.211Z,71.78
2023-01-10T21:42:47.085Z,71.59
2023-01-10T21:45:18.406Z,71.23
2023-01-10T21:47:48.959Z,71.33
2023-01-10T21:50:22.560Z,71.03
2023-01-10T21:52:53.075Z,71.33
2023-01-10T21:55:25.974Z,70.77
2023-01-10T21:57:56.296Z,70.86
2023-01-10T22:00:26.850Z,70.58
2023-01-10T22:02:57.576Z,70.60
2023-01-10T22:05:27.906Z,70.52
2023-01-10T22:07:59.098Z,70.51
2023-01-10T22:10:31.791Z,70.18
2023-01-10T22:13:02.090Z,70.12
2023-01-10T22:15:32.404Z,69.82
2023-01-10T22:18:03.170Z,69.69
2023-01-10T22:20:33.680Z,69.91
2023-01-10T22:23:04.168Z,70.02
2023-01-10T22:25:37.156Z,69.83
2023-01-10T22:28:07.848Z,69.92
2023-01-10T22:30:38.173Z,69.78
2023-01-10T22:33:08.499Z,69.75
2023-01-10T22:35:38.788Z,69.64
2023-01-10T22:38:09.032Z,69.50
2023-01-10T22:40:41.910Z,69.45
2023-01-10T22:43:12.527Z,69.46
2023-01-10T22:45:46.513Z,69.14
2023-01-10T22:48:16.886Z,69.29
2023-01-10T22:50:51.985Z,69.16
2023-01-10T22:53:22.304Z,68.98
2023-01-10T22:55:55.435Z,69.03
2023-01-10T22:58:25.768Z,68.94
2023-01-10T23:00:56.202Z,68.97
2023-01-10T23:03:27.839Z,68.61
2023-01-10T23:05:59.128Z,68.80
2023-01-10T23:08:29.884Z,68.72
2023-01-10T23:11:03.375Z,68.56
2023-01-10T23:13:34.377Z,68.27
2023-01-10T23:16:12.305Z,68.40
2023-01-10T23:18:43.029Z,68.19
2023-01-10T23:21:13.527Z,67.88
2023-01-10T23:23:43.927Z,67.51
2023-01-10T23:26:16.937Z,67.48
2023-01-10T23:28:50.202Z,66.59
2023-01-10T23:31:23.141Z,66.61
2023-01-10T23:33:55.438Z,65.96
2023-01-10T23:36:26.225Z,65.41
2023-01-10T23:38:56.605Z,65.32
2023-01-10T23:41:29.607Z,64.54
2023-01-10T23:43:59.939Z,64.46
2023-01-10T23:46:30.204Z,64.44
2023-01-10T23:49:00.530Z,63.78
2023-01-10T23:51:30.858Z,63.44
2023-01-10T23:54:01.131Z,63.46
2023-01-10T23:56:34.076Z,63.31
2023-01-10T23:59:04.648Z,63.04
